createdAt,value
2024-02-29T00:01:58.984Z,2.79
2024-02-29T00:04:07.519Z,2.71
2024-02-29T00:06:15.767Z,2.77
2024-02-29T00:08:23.893Z,2.73
2024-02-29T00:10:31.982Z,2.68
2024-02-29T00:12:42.963Z,2.55
2024-02-29T00:14:50.997Z,2.53
2024-02-29T00:17:01.524Z,2.52
2024-02-29T00:19:09.622Z,2.45
2024-02-29T00:21:17.696Z,2.37
2024-02-29T00:23:26.025Z,2.33
2024-02-29T00:25:34.174Z,2.38
2024-02-29T00:27:44.890Z,2.39
2024-02-29T00:29:52.856Z,2.24
2024-02-29T00:32:02.419Z,2.24
2024-02-29T00:34:10.986Z,2.13
2024-02-29T00:36:19.712Z,2.03
2024-02-29T00:38:27.820Z,2.07
2024-02-29T00:40:35.880Z,1.94
2024-02-29T00:42:46.884Z,1.91
2024-02-29T00:44:54.883Z,1.86
2024-02-29T00:47:03.099Z,1.70
2024-02-29T00:49:13.618Z,1.73
2024-02-29T00:51:21.686Z,1.66
2024-02-29T00:53:29.844Z,1.59
2024-02-29T00:55:37.901Z,1.55
2024-02-29T00:57:51.081Z,1.50
2024-02-29T00:59:59.512Z,1.54
2024-02-29T01:02:07.919Z,1.55
2024-02-29T01:04:13.536Z,1.60
2024-02-29T01:06:21.629Z,1.42
2024-02-29T01:08:29.513Z,1.45
2024-02-29T01:10:37.874Z,1.46
2024-02-29T01:12:46.484Z,1.55
2024-02-29T01:14:54.855Z,1.39
2024-02-29T01:17:03.037Z,1.37
2024-02-29T01:19:11.054Z,1.28
2024-02-29T01:21:19.290Z,1.17
2024-02-29T01:23:27.647Z,1.16
2024-02-29T01:25:37.668Z,1.25
2024-02-29T01:27:48.375Z,1.24
2024-02-29T01:29:56.490Z,1.28
2024-02-29T01:32:12.369Z,1.30
2024-02-29T01:34:26.625Z,1.18
2024-02-29T01:36:35.018Z,1.20
2024-02-29T01:38:43.136Z,1.16
2024-02-29T01:40:48.718Z,1.11
2024-02-29T01:42:59.558Z,1.20
2024-02-29T01:45:08.857Z,1.23
2024-02-29T01:47:14.517Z,1.21
2024-02-29T01:49:26.556Z,1.19
2024-02-29T01:51:36.665Z,1.17
2024-02-29T01:53:42.666Z,1.17
2024-02-29T01:55:50.662Z,1.08
2024-02-29T01:58:04.050Z,1.14
2024-02-29T02:00:13.485Z,1.03
2024-02-29T02:02:22.284Z,1.09
2024-02-29T02:04:30.275Z,1.04
2024-02-29T02:06:38.272Z,1.09
2024-02-29T02:08:46.477Z,1.02
2024-02-29T02:10:54.606Z,1.09
2024-02-29T02:13:05.444Z,0.99
2024-02-29T02:15:13.921Z,0.99
2024-02-29T02:17:23.026Z,0.92
2024-02-29T02:19:28.256Z,0.93
2024-02-29T02:21:39.077Z,0.96
2024-02-29T02:23:46.975Z,0.95
2024-02-29T02:25:58.912Z,1.00
2024-02-29T02:28:07.414Z,0.94
2024-02-29T02:30:16.121Z,0.84
2024-02-29T02:32:24.276Z,0.80
2024-02-29T02:34:32.353Z,0.73
2024-02-29T02:36:43.229Z,0.65
2024-02-29T02:38:51.373Z,0.70
2024-02-29T02:40:59.426Z,0.69
2024-02-29T02:43:07.793Z,0.66
2024-02-29T02:45:13.613Z,0.64
2024-02-29T02:47:21.748Z,0.70
2024-02-29T02:49:29.787Z,0.82
2024-02-29T02:51:35.094Z,0.90
2024-02-29T02:53:45.727Z,1.00
2024-02-29T02:55:53.621Z,0.95
2024-02-29T02:58:01.721Z,1.00
2024-02-29T03:00:11.849Z,0.99
2024-02-29T03:02:20.002Z,0.89
2024-02-29T03:04:28.048Z,0.88
2024-02-29T03:06:36.135Z,0.85
2024-02-29T03:08:44.162Z,0.92
2024-02-29T03:10:52.234Z,0.97
2024-02-29T03:13:00.179Z,1.00
2024-02-29T03:15:09.395Z,1.02
2024-02-29T03:17:17.440Z,0.97
2024-02-29T03:19:26.814Z,0.92
2024-02-29T03:21:34.965Z,0.94
2024-02-29T03:23:43.136Z,0.83
2024-02-29T03:25:54.059Z,0.90
2024-02-29T03:27:59.683Z,0.95
2024-02-29T03:30:08.601Z,1.03
2024-02-29T03:32:16.732Z,1.09
2024-02-29T03:34:25.470Z,1.06
2024-02-29T03:36:33.611Z,1.06
2024-02-29T03:38:43.489Z,0.92
2024-02-29T03:40:54.365Z,0.91
2024-02-29T03:43:02.826Z,0.87
2024-02-29T03:45:11.520Z,0.91
2024-02-29T03:47:20.040Z,1.01
2024-02-29T03:49:27.915Z,1.12
2024-02-29T03:51:35.980Z,0.96
2024-02-29T03:53:43.953Z,0.90
2024-02-29T03:55:52.127Z,0.82
2024-02-29T03:58:00.342Z,0.84
2024-02-29T04:00:12.728Z,0.80
2024-02-29T04:02:20.804Z,0.65
2024-02-29T04:04:29.053Z,0.68
2024-02-29T04:06:37.906Z,0.72
2024-02-29T04:08:46.375Z,0.63
2024-02-29T04:10:57.102Z,0.62
2024-02-29T04:13:05.484Z,0.54
2024-02-29T04:15:13.918Z,0.45
2024-02-29T04:17:22.109Z,0.47
2024-02-29T04:19:30.100Z,0.46
2024-02-29T04:21:38.047Z,0.37
2024-02-29T04:23:45.955Z,0.23
2024-02-29T04:25:56.554Z,0.10
2024-02-29T04:28:04.434Z,-0.03
2024-02-29T04:30:13.982Z,-0.02
2024-02-29T04:32:22.100Z,-0.02
2024-02-29T04:34:30.585Z,-0.14
2024-02-29T04:36:38.814Z,0.01
2024-02-29T04:38:46.921Z,-0.01
2024-02-29T04:40:58.514Z,-0.18
2024-02-29T04:43:06.646Z,-0.19
2024-02-29T04:45:15.233Z,-0.27
2024-02-29T04:47:20.836Z,-0.23
2024-02-29T04:49:28.987Z,-0.25
2024-02-29T04:51:37.127Z,-0.21
2024-02-29T04:53:45.240Z,-0.34
2024-02-29T04:55:55.190Z,-0.38
2024-02-29T04:58:05.897Z,-0.40
2024-02-29T05:00:15.338Z,-0.31
2024-02-29T05:02:23.200Z,-0.25
2024-02-29T05:04:31.324Z,-0.21
2024-02-29T05:06:41.221Z,-0.23
2024-02-29T05:08:49.167Z,-0.30
2024-02-29T05:10:57.330Z,-0.43
2024-02-29T05:13:08.332Z,-0.50
2024-02-29T05:15:16.897Z,-0.54
2024-02-29T05:17:25.035Z,-0.47
2024-02-29T05:19:33.051Z,-0.44
2024-02-29T05:21:41.034Z,-0.43
2024-02-29T05:23:49.418Z,-0.58
2024-02-29T05:25:54.788Z,-0.55
2024-02-29T05:28:03.110Z,-0.58
2024-02-29T05:30:16.054Z,-0.55
2024-02-29T05:32:24.012Z,-0.58
2024-02-29T05:34:32.208Z,-0.59
2024-02-29T05:36:40.340Z,-0.66
2024-02-29T05:38:51.656Z,-0.67
2024-02-29T05:41:00.528Z,-0.72
2024-02-29T05:43:09.645Z,-0.88
2024-02-29T05:45:20.330Z,-0.84
2024-02-29T05:47:28.387Z,-0.90
2024-02-29T05:49:36.553Z,-1.00
2024-02-29T05:51:44.782Z,-1.11
2024-02-29T05:53:52.814Z,-1.11
2024-02-29T05:55:58.198Z,-0.93
2024-02-29T05:58:06.242Z,-1.00
2024-02-29T06:00:15.526Z,-1.00
2024-02-29T06:02:26.095Z,-1.11
2024-02-29T06:04:33.978Z,-1.31
2024-02-29T06:06:41.884Z,-1.46
2024-02-29T06:08:50.149Z,-1.36
2024-02-29T06:10:58.136Z,-1.23
2024-02-29T06:13:06.054Z,-1.20
2024-02-29T06:15:13.986Z,-1.29
2024-02-29T06:17:20.967Z,-1.40
2024-02-29T06:19:31.531Z,-1.45
2024-02-29T06:21:39.584Z,-1.41
2024-02-29T06:23:47.705Z,-1.25
2024-02-29T06:25:55.790Z,-1.16
2024-02-29T06:28:03.997Z,-1.18
2024-02-29T06:30:12.956Z,-1.14
2024-02-29T06:32:21.053Z,-1.12
2024-02-29T06:34:32.179Z,-0.95
2024-02-29T06:36:40.212Z,-0.96
2024-02-29T06:38:48.392Z,-0.94
2024-02-29T06:40:56.320Z,-0.84
2024-02-29T06:43:05.207Z,-0.83
2024-02-29T06:45:11.932Z,-1.00
2024-02-29T06:47:22.954Z,-1.00
2024-02-29T06:49:33.434Z,-1.09
2024-02-29T06:51:41.796Z,-1.07
2024-02-29T06:53:49.953Z,-1.18
2024-02-29T06:55:57.997Z,-1.19
2024-02-29T06:58:06.864Z,-1.18
2024-02-29T07:00:16.139Z,-1.31
2024-02-29T07:02:24.275Z,-1.29
2024-02-29T07:04:34.806Z,-1.30
2024-02-29T07:06:43.116Z,-1.30
2024-02-29T07:08:51.251Z,-1.23
2024-02-29T07:11:02.177Z,-1.03
2024-02-29T07:13:10.608Z,-0.94
2024-02-29T07:15:18.668Z,-0.94
2024-02-29T07:17:26.791Z,-0.86
2024-02-29T07:19:37.618Z,-0.93
2024-02-29T07:21:46.060Z,-0.90
2024-02-29T07:23:54.142Z,-0.75
2024-02-29T07:26:05.275Z,-0.88
2024-02-29T07:28:13.260Z,-0.86
2024-02-29T07:30:22.240Z,-0.78
2024-02-29T07:32:30.359Z,-0.75
2024-02-29T07:34:40.903Z,-0.48
2024-02-29T07:36:50.443Z,-0.35
2024-02-29T07:38:58.535Z,-0.48
2024-02-29T07:41:06.745Z,-0.35
2024-02-29T07:43:14.819Z,-0.33
2024-02-29T07:45:22.960Z,-0.16
2024-02-29T07:47:30.933Z,-0.05
2024-02-29T07:49:41.494Z,-0.02
2024-02-29T07:51:52.935Z,-0.08
2024-02-29T07:54:02.689Z,-0.07
2024-02-29T07:56:10.890Z,0.18
2024-02-29T07:58:20.198Z,0.41
2024-02-29T08:00:28.346Z,0.32
2024-02-29T08:02:33.791Z,0.55
2024-02-29T08:04:44.380Z,0.57
2024-02-29T08:06:52.589Z,0.72
2024-02-29T08:09:01.142Z,1.19
2024-02-29T08:11:09.415Z,1.47
2024-02-29T08:13:17.517Z,1.56
2024-02-29T08:15:25.602Z,1.96
2024-02-29T08:17:33.723Z,1.82
2024-02-29T08:19:41.887Z,1.93
2024-02-29T08:21:50.408Z,1.85
2024-02-29T08:23:58.338Z,1.93
2024-02-29T08:26:08.555Z,2.54
2024-02-29T08:28:17.079Z,2.29
2024-02-29T08:30:25.379Z,2.59
2024-02-29T08:32:33.430Z,2.70
2024-02-29T08:34:41.305Z,2.60
2024-02-29T08:36:51.272Z,2.56
2024-02-29T08:38:59.864Z,2.61
2024-02-29T08:41:08.293Z,2.86
2024-02-29T08:43:20.638Z,3.09
2024-02-29T08:45:28.586Z,3.53
2024-02-29T08:47:34.121Z,3.84
2024-02-29T08:49:42.375Z,4.00
2024-02-29T08:51:53.111Z,3.97
2024-02-29T08:53:58.404Z,3.26
2024-02-29T08:56:06.928Z,3.34
2024-02-29T08:58:14.902Z,3.35
2024-02-29T09:00:23.427Z,3.62
2024-02-29T09:02:33.302Z,3.82
2024-02-29T09:04:41.822Z,4.09
2024-02-29T09:06:52.568Z,4.26
2024-02-29T09:09:00.923Z,4.15
2024-02-29T09:11:09.651Z,4.34
2024-02-29T09:13:29.617Z,3.53
2024-02-29T09:15:43.388Z,3.09
2024-02-29T09:17:53.570Z,2.80
2024-02-29T09:19:58.937Z,2.70
2024-02-29T09:22:10.457Z,2.77
2024-02-29T09:24:16.354Z,2.94
2024-02-29T09:26:24.572Z,2.91
2024-02-29T09:28:32.696Z,2.87
2024-02-29T09:30:40.945Z,2.89
2024-02-29T09:32:53.632Z,3.10
2024-02-29T09:35:01.860Z,3.01
2024-02-29T09:37:12.892Z,2.98
2024-02-29T09:39:21.779Z,3.33
2024-02-29T09:41:49.696Z,3.79
2024-02-29T09:43:58.243Z,4.06
2024-02-29T09:46:08.146Z,3.89
2024-02-29T09:48:18.131Z,4.08
2024-02-29T09:50:26.264Z,4.28
2024-02-29T09:52:37.243Z,4.68
2024-02-29T09:54:47.200Z,5.12
2024-02-29T09:56:55.736Z,5.40
2024-02-29T09:59:06.974Z,6.11
2024-02-29T10:01:15.954Z,7.03
2024-02-29T10:03:24.311Z,7.96
2024-02-29T10:05:32.744Z,8.08
2024-02-29T10:07:46.838Z,9.00
2024-02-29T10:09:55.238Z,9.98
2024-02-29T10:12:04.466Z,10.60
2024-02-29T10:14:23.907Z,11.10
2024-02-29T10:16:34.432Z,11.62
2024-02-29T10:18:43.282Z,11.37
2024-02-29T10:20:51.978Z,11.68
2024-02-29T10:23:02.923Z,11.78
2024-02-29T10:25:14.766Z,11.85
2024-02-29T10:27:23.819Z,11.79
2024-02-29T10:29:33.518Z,11.45
2024-02-29T10:31:42.127Z,12.63
2024-02-29T10:33:52.034Z,11.41
2024-02-29T10:36:00.638Z,12.23
2024-02-29T10:38:12.293Z,13.48
2024-02-29T10:40:18.277Z,13.19
2024-02-29T10:42:26.896Z,12.16
2024-02-29T10:44:39.134Z,12.59
2024-02-29T10:46:51.083Z,12.52
2024-02-29T10:49:04.977Z,12.79
2024-02-29T10:51:17.993Z,12.57
2024-02-29T10:53:40.370Z,11.16
2024-02-29T10:56:00.421Z,11.53
2024-02-29T10:58:14.389Z,10.76
2024-02-29T11:00:22.434Z,11.08
2024-02-29T11:02:31.241Z,11.12
2024-02-29T11:04:39.941Z,11.01
2024-02-29T11:06:50.835Z,10.69
2024-02-29T11:09:04.435Z,10.08
2024-02-29T11:11:16.496Z,10.28
2024-02-29T11:13:25.446Z,9.82
2024-02-29T11:15:34.718Z,9.18
2024-02-29T11:17:47.603Z,8.39
2024-02-29T11:20:10.651Z,8.08
2024-02-29T11:22:19.287Z,8.00
2024-02-29T11:24:30.271Z,8.01
2024-02-29T11:26:39.941Z,8.40
2024-02-29T11:28:48.114Z,8.55
2024-02-29T11:30:55.363Z,8.63
2024-02-29T11:33:11.779Z,8.61
2024-02-29T11:35:20.233Z,9.05
2024-02-29T11:37:32.704Z,8.49
2024-02-29T11:39:45.103Z,8.53
2024-02-29T11:41:54.011Z,9.03
2024-02-29T11:44:02.173Z,9.03
2024-02-29T11:46:11.395Z,9.01
2024-02-29T11:48:19.610Z,8.98
2024-02-29T11:50:27.872Z,8.95
2024-02-29T11:52:35.859Z,8.77
2024-02-29T11:54:47.190Z,8.85
2024-02-29T11:56:55.821Z,8.71
2024-02-29T11:59:08.023Z,9.22
2024-02-29T12:01:17.330Z,9.15
2024-02-29T12:03:26.036Z,9.24
2024-02-29T12:05:36.257Z,9.60
2024-02-29T12:07:44.313Z,9.75
2024-02-29T12:09:55.793Z,9.35
2024-02-29T12:12:06.030Z,9.37
2024-02-29T12:14:14.863Z,9.29
2024-02-29T12:16:22.995Z,9.15
2024-02-29T12:18:31.023Z,9.19
2024-02-29T12:20:39.472Z,9.51
2024-02-29T12:22:50.342Z,9.64
2024-02-29T12:24:58.788Z,9.59
2024-02-29T12:27:07.885Z,9.68
2024-02-29T12:29:16.090Z,9.66
2024-02-29T12:31:24.440Z,9.63
2024-02-29T12:33:32.969Z,10.13
2024-02-29T12:35:42.317Z,10.40
2024-02-29T12:37:50.458Z,10.53
2024-02-29T12:40:01.755Z,10.70
2024-02-29T12:42:08.387Z,10.19
2024-02-29T12:44:16.613Z,10.28
2024-02-29T12:46:22.164Z,10.37
2024-02-29T12:48:31.070Z,10.47
2024-02-29T12:50:39.257Z,10.47
2024-02-29T12:52:49.929Z,10.67
2024-02-29T12:55:00.733Z,10.37
2024-02-29T12:57:11.265Z,10.17
2024-02-29T12:59:20.703Z,10.36
2024-02-29T13:01:33.211Z,10.62
2024-02-29T13:03:38.722Z,10.74
2024-02-29T13:05:47.178Z,10.74
2024-02-29T13:07:55.598Z,10.84
2024-02-29T13:10:04.552Z,11.18
2024-02-29T13:12:13.294Z,11.21
2024-02-29T13:14:21.777Z,10.80
2024-02-29T13:16:30.113Z,10.44
2024-02-29T13:18:38.361Z,10.59
2024-02-29T13:20:46.670Z,10.82
2024-02-29T13:22:54.829Z,11.16
2024-02-29T13:25:05.510Z,11.34
2024-02-29T13:27:13.771Z,11.38
2024-02-29T13:29:22.260Z,11.04
2024-02-29T13:31:30.343Z,11.37
2024-02-29T13:33:38.507Z,11.10
2024-02-29T13:35:46.654Z,10.98
2024-02-29T13:37:54.946Z,11.10
2024-02-29T13:40:05.679Z,11.15
2024-02-29T13:42:13.923Z,10.93
2024-02-29T13:44:22.028Z,11.10
2024-02-29T13:46:33.187Z,11.14
2024-02-29T13:48:44.822Z,11.06
2024-02-29T13:50:53.754Z,11.19
2024-02-29T13:53:01.815Z,11.33
2024-02-29T13:55:13.706Z,11.45
2024-02-29T13:57:21.927Z,11.55
2024-02-29T13:59:29.187Z,11.56
2024-02-29T14:01:37.387Z,11.27
2024-02-29T14:03:45.404Z,11.21
2024-02-29T14:05:53.908Z,11.20
2024-02-29T14:08:00.233Z,11.03
2024-02-29T14:10:10.375Z,11.12
2024-02-29T14:12:22.592Z,11.15
2024-02-29T14:14:30.974Z,11.06
2024-02-29T14:16:39.056Z,11.05
2024-02-29T14:18:47.099Z,11.16
2024-02-29T14:20:52.500Z,11.12
2024-02-29T14:23:00.452Z,11.16
2024-02-29T14:25:10.363Z,10.92
2024-02-29T14:27:22.143Z,10.95
2024-02-29T14:29:30.317Z,10.88
2024-02-29T14:31:35.792Z,10.74
2024-02-29T14:33:44.075Z,10.90
2024-02-29T14:35:51.993Z,11.02
2024-02-29T14:38:00.316Z,10.96
2024-02-29T14:40:12.713Z,10.91
2024-02-29T14:42:23.761Z,11.03
2024-02-29T14:44:31.690Z,11.11
2024-02-29T14:46:39.767Z,11.22
2024-02-29T14:48:47.978Z,11.19
2024-02-29T14:50:56.012Z,11.43
2024-02-29T14:53:04.048Z,11.16
2024-02-29T14:55:14.607Z,10.96
2024-02-29T14:57:25.550Z,10.98
2024-02-29T14:59:34.315Z,11.15
2024-02-29T15:01:43.252Z,11.05
2024-02-29T15:03:53.047Z,11.01
2024-02-29T15:06:01.992Z,11.02
2024-02-29T15:08:11.915Z,11.03
2024-02-29T15:10:22.182Z,10.96
2024-02-29T15:12:32.908Z,10.89
2024-02-29T15:14:41.055Z,10.93
2024-02-29T15:16:49.298Z,11.05
2024-02-29T15:18:54.929Z,11.03
2024-02-29T15:21:02.855Z,10.78
2024-02-29T15:23:10.868Z,10.67
2024-02-29T15:25:17.411Z,10.57
2024-02-29T15:27:27.464Z,10.52
2024-02-29T15:29:38.173Z,10.42
2024-02-29T15:31:46.749Z,10.33
2024-02-29T15:33:54.880Z,10.28
2024-02-29T15:36:02.961Z,10.22
2024-02-29T15:38:09.116Z,10.03
2024-02-29T15:40:17.266Z,10.04
2024-02-29T15:42:25.609Z,10.09
2024-02-29T15:44:33.830Z,9.90
2024-02-29T15:46:46.375Z,9.94
2024-02-29T15:48:56.152Z,9.89
2024-02-29T15:51:04.451Z,9.78
2024-02-29T15:53:09.716Z,9.58
2024-02-29T15:55:18.072Z,9.55
2024-02-29T15:57:26.627Z,9.53
2024-02-29T15:59:34.736Z,9.39
2024-02-29T16:01:45.970Z,9.36
2024-02-29T16:03:51.497Z,9.30
2024-02-29T16:05:59.792Z,9.27
2024-02-29T16:08:08.383Z,9.10
2024-02-29T16:10:16.763Z,9.00
2024-02-29T16:12:24.875Z,8.95
2024-02-29T16:14:33.242Z,8.84
2024-02-29T16:16:41.416Z,8.88
2024-02-29T16:18:52.222Z,8.85
2024-02-29T16:21:00.741Z,8.69
2024-02-29T16:23:08.919Z,8.66
2024-02-29T16:25:19.576Z,8.53
2024-02-29T16:27:27.830Z,8.53
2024-02-29T16:29:35.852Z,8.48
2024-02-29T16:31:44.114Z,8.39
2024-02-29T16:33:54.803Z,8.34
2024-02-29T16:36:03.118Z,8.30
2024-02-29T16:38:11.122Z,8.19
2024-02-29T16:40:17.031Z,8.14
2024-02-29T16:42:25.013Z,8.17
2024-02-29T16:44:33.268Z,8.04
2024-02-29T16:46:41.561Z,8.00
2024-02-29T16:48:49.739Z,7.97
2024-02-29T16:51:02.119Z,7.99
2024-02-29T16:53:10.964Z,7.93
2024-02-29T16:55:19.038Z,7.81
2024-02-29T16:57:27.305Z,7.82
2024-02-29T16:59:35.796Z,7.72
2024-02-29T17:01:45.225Z,7.68
2024-02-29T17:03:53.331Z,7.67
2024-02-29T17:06:04.250Z,7.59
2024-02-29T17:08:12.427Z,7.57
2024-02-29T17:10:20.730Z,7.53
2024-02-29T17:12:28.786Z,7.55
2024-02-29T17:14:36.994Z,7.44
2024-02-29T17:16:45.000Z,7.39
2024-02-29T17:18:53.147Z,7.31
2024-02-29T17:21:03.940Z,7.25
2024-02-29T17:23:12.107Z,7.27
2024-02-29T17:25:20.364Z,7.21
2024-02-29T17:27:28.363Z,7.10
2024-02-29T17:29:36.680Z,7.07
2024-02-29T17:31:44.773Z,7.03
2024-02-29T17:33:53.109Z,6.95
2024-02-29T17:36:03.927Z,6.91
2024-02-29T17:38:12.153Z,6.86
2024-02-29T17:40:20.622Z,6.90
2024-02-29T17:42:29.766Z,6.93
2024-02-29T17:44:38.524Z,6.83
2024-02-29T17:46:47.056Z,6.86
2024-02-29T17:48:55.253Z,6.80
2024-02-29T17:51:05.981Z,6.73
2024-02-29T17:53:14.188Z,6.66
2024-02-29T17:55:22.985Z,6.64
2024-02-29T17:57:31.187Z,6.58
2024-02-29T17:59:40.709Z,6.58
2024-02-29T18:01:49.661Z,6.54
2024-02-29T18:03:55.148Z,6.54
2024-02-29T18:06:06.010Z,6.43
2024-02-29T18:08:17.987Z,6.40
2024-02-29T18:10:26.311Z,6.41
2024-02-29T18:12:34.659Z,6.36
2024-02-29T18:14:42.871Z,6.35
2024-02-29T18:16:48.488Z,6.40
2024-02-29T18:18:56.650Z,6.28
2024-02-29T18:21:08.262Z,6.16
2024-02-29T18:23:17.377Z,6.19
2024-02-29T18:25:26.210Z,6.13
2024-02-29T18:27:34.426Z,6.11
2024-02-29T18:29:44.325Z,6.08
2024-02-29T18:31:54.482Z,5.97
2024-02-29T18:34:03.454Z,5.96
2024-02-29T18:36:12.855Z,5.95
2024-02-29T18:38:20.843Z,5.92
2024-02-29T18:40:30.289Z,5.86
2024-02-29T18:42:38.416Z,5.86
2024-02-29T18:44:46.499Z,5.74
2024-02-29T18:46:54.788Z,5.69
2024-02-29T18:49:02.878Z,5.74
2024-02-29T18:51:11.065Z,5.78
2024-02-29T18:53:22.136Z,5.75
2024-02-29T18:55:30.565Z,5.72
2024-02-29T18:57:36.076Z,5.61
2024-02-29T18:59:44.271Z,5.61
2024-02-29T19:01:56.977Z,5.59
2024-02-29T19:04:05.323Z,5.56
2024-02-29T19:06:13.525Z,5.56
2024-02-29T19:08:25.702Z,5.52
2024-02-29T19:10:34.480Z,5.49
2024-02-29T19:12:42.621Z,5.43
2024-02-29T19:14:50.729Z,5.38
2024-02-29T19:16:59.005Z,5.35
2024-02-29T19:19:04.900Z,5.38
2024-02-29T19:21:13.204Z,5.39
2024-02-29T19:23:24.076Z,5.21
2024-02-29T19:25:32.332Z,5.11
2024-02-29T19:27:40.390Z,5.17
2024-02-29T19:29:51.456Z,5.11
2024-02-29T19:31:59.520Z,5.07
2024-02-29T19:34:08.157Z,5.04
2024-02-29T19:36:18.530Z,4.91
2024-02-29T19:38:29.175Z,4.86
2024-02-29T19:40:37.321Z,4.86
2024-02-29T19:42:45.294Z,4.77
2024-02-29T19:44:59.370Z,4.72
2024-02-29T19:47:08.175Z,4.76
2024-02-29T19:49:16.906Z,4.83
2024-02-29T19:51:25.133Z,4.93
2024-02-29T19:53:37.174Z,4.83
2024-02-29T19:55:46.121Z,4.81
2024-02-29T19:57:54.226Z,4.78
2024-02-29T20:00:04.955Z,4.78
2024-02-29T20:02:20.762Z,4.78
2024-02-29T20:04:31.011Z,4.80
2024-02-29T20:06:39.393Z,4.75
2024-02-29T20:08:50.204Z,4.69
2024-02-29T20:10:58.338Z,4.72
2024-02-29T20:13:07.020Z,4.70
2024-02-29T20:15:16.063Z,4.84
2024-02-29T20:17:24.356Z,4.77
2024-02-29T20:19:33.495Z,4.70
2024-02-29T20:21:44.392Z,4.65
2024-02-29T20:23:55.144Z,4.67
2024-02-29T20:26:03.130Z,4.72
2024-02-29T20:28:11.549Z,4.68
2024-02-29T20:30:19.730Z,4.66
2024-02-29T20:32:29.016Z,4.58
2024-02-29T20:34:37.212Z,4.57
2024-02-29T20:36:47.034Z,4.62
2024-02-29T20:38:57.593Z,4.53
2024-02-29T20:41:06.499Z,4.53
2024-02-29T20:43:14.522Z,4.58
2024-02-29T20:45:22.684Z,4.59
2024-02-29T20:47:31.334Z,4.66
2024-02-29T20:49:39.323Z,4.63
2024-02-29T20:51:47.496Z,4.56
2024-02-29T20:53:58.083Z,4.68
2024-02-29T20:56:03.682Z,4.69
2024-02-29T20:58:11.772Z,4.62
2024-02-29T21:00:17.926Z,4.66
2024-02-29T21:02:26.340Z,4.62
2024-02-29T21:04:34.375Z,4.59
2024-02-29T21:06:42.759Z,4.55
2024-02-29T21:08:50.706Z,4.49
2024-02-29T21:11:01.978Z,4.57
2024-02-29T21:13:14.485Z,4.59
2024-02-29T21:15:22.904Z,4.60
2024-02-29T21:17:31.165Z,4.76
2024-02-29T21:19:36.722Z,4.78
2024-02-29T21:21:45.329Z,4.76
2024-02-29T21:23:53.336Z,4.71
2024-02-29T21:26:04.331Z,4.79
2024-02-29T21:28:12.549Z,4.75
2024-02-29T21:30:19.454Z,4.71
2024-02-29T21:32:28.774Z,4.61
2024-02-29T21:34:35.782Z,4.75
2024-02-29T21:36:44.690Z,4.55
2024-02-29T21:38:56.368Z,4.55
2024-02-29T21:41:07.359Z,4.43
2024-02-29T21:43:17.394Z,4.51
2024-02-29T21:45:25.533Z,4.43
2024-02-29T21:47:34.048Z,4.32
2024-02-29T21:49:42.284Z,4.17
2024-02-29T21:51:50.573Z,4.10
2024-02-29T21:54:00.801Z,4.02
2024-02-29T21:56:13.395Z,4.00
2024-02-29T21:58:22.566Z,3.96
2024-02-29T22:00:34.524Z,4.05
2024-02-29T22:02:42.606Z,4.11
2024-02-29T22:04:50.780Z,4.03
2024-02-29T22:06:56.317Z,4.10
2024-02-29T22:09:04.267Z,4.06
2024-02-29T22:11:15.023Z,3.98
2024-02-29T22:13:23.092Z,3.86
2024-02-29T22:15:28.441Z,3.97
2024-02-29T22:17:36.714Z,3.93
2024-02-29T22:19:44.785Z,3.99
2024-02-29T22:21:53.221Z,3.93
2024-02-29T22:24:01.407Z,3.90
2024-02-29T22:26:09.446Z,3.87
2024-02-29T22:28:20.196Z,3.92
2024-02-29T22:30:29.202Z,3.88
2024-02-29T22:32:37.652Z,3.87
2024-02-29T22:34:45.576Z,3.87
2024-02-29T22:36:53.541Z,3.98
2024-02-29T22:39:01.733Z,3.86
2024-02-29T22:41:09.926Z,3.89
2024-02-29T22:43:21.489Z,3.83
2024-02-29T22:45:29.557Z,3.78
2024-02-29T22:47:37.712Z,3.75
2024-02-29T22:49:45.815Z,3.90
2024-02-29T22:51:53.797Z,3.84
2024-02-29T22:54:02.042Z,3.81
2024-02-29T22:56:07.833Z,3.80
2024-02-29T22:58:16.300Z,3.78
2024-02-29T23:00:31.911Z,3.80
2024-02-29T23:02:41.539Z,3.71
2024-02-29T23:04:49.533Z,3.69
2024-02-29T23:06:57.899Z,3.70
2024-02-29T23:09:05.828Z,3.65
2024-02-29T23:11:11.165Z,3.57
2024-02-29T23:13:19.410Z,3.44
2024-02-29T23:15:30.047Z,3.36
2024-02-29T23:17:38.360Z,3.29
2024-02-29T23:19:46.607Z,3.33
2024-02-29T23:21:54.661Z,3.34
2024-02-29T23:24:02.616Z,3.31
2024-02-29T23:26:10.829Z,3.52
2024-02-29T23:28:19.034Z,3.60
2024-02-29T23:30:29.526Z,3.67
2024-02-29T23:32:35.367Z,3.66
2024-02-29T23:34:43.673Z,3.64
2024-02-29T23:36:51.956Z,3.40
2024-02-29T23:38:59.999Z,3.54
2024-02-29T23:41:08.743Z,3.72
2024-02-29T23:43:16.905Z,3.73
2024-02-29T23:45:25.741Z,3.70
2024-02-29T23:47:36.507Z,3.58
2024-02-29T23:49:44.478Z,3.58
2024-02-29T23:51:52.525Z,3.47
2024-02-29T23:54:01.408Z,3.55
2024-02-29T23:56:10.189Z,3.53
2024-02-29T23:58:18.290Z,3.42
